sensor_id;sensor_type;location;lat;lon;timestamp;pressure;altitude;pressure_sealevel;temperature;humidity
17060;BME280;8646;49.716;9.266;2022-11-15T00:00:06;100070.91;;;7.68;100.00
17060;BME280;8646;49.716;9.266;2022-11-15T00:03:09;100067.84;;;7.53;100.00
17060;BME280;8646;49.716;9.266;2022-11-15T00:06:12;100064.56;;;7.44;100.00
17060;BME280;8646;49.716;9.266;2022-11-15T00:09:16;100071.50;;;7.51;100.00
17060;BME280;8646;49.716;9.266;2022-11-15T00:12:19;100068.09;;;7.46;100.00
17060;BME280;8646;49.716;9.266;2022-11-15T00:15:22;100060.06;;;7.44;100.00
17060;BME280;8646;49.716;9.266;2022-11-15T00:18:24;100066.44;;;7.42;100.00
17060;BME280;8646;49.716;9.266;2022-11-15T00:21:28;100071.03;;;7.38;100.00
17060;BME280;8646;49.716;9.266;2022-11-15T00:24:32;100057.72;;;7.34;100.00
17060;BME280;8646;49.716;9.266;2022-11-15T00:27:35;100057.06;;;7.53;100.00
17060;BME280;8646;49.716;9.266;2022-11-15T00:30:38;100054.19;;;7.32;100.00
17060;BME280;8646;49.716;9.266;2022-11-15T00:33:43;100045.75;;;7.16;100.00
17060;BME280;8646;49.716;9.266;2022-11-15T00:36:46;100062.81;;;7.43;100.00
17060;BME280;8646;49.716;9.266;2022-11-15T00:39:51;100067.00;;;7.25;100.00
17060;BME280;8646;49.716;9.266;2022-11-15T00:42:54;100070.66;;;7.22;100.00
17060;BME280;8646;49.716;9.266;2022-11-15T00:45:57;100074.13;;;7.26;100.00
17060;BME280;8646;49.716;9.266;2022-11-15T00:49:00;100042.56;;;7.31;100.00
17060;BME280;8646;49.716;9.266;2022-11-15T00:52:03;100059.06;;;7.47;100.00
17060;BME280;8646;49.716;9.266;2022-11-15T00:55:08;100056.34;;;7.73;100.00
17060;BME280;8646;49.716;9.266;2022-11-15T00:58:11;100055.25;;;7.79;100.00
17060;BME280;8646;49.716;9.266;2022-11-15T01:01:14;100041.28;;;7.68;100.00
17060;BME280;8646;49.716;9.266;2022-11-15T01:04:17;100034.25;;;7.63;100.00
17060;BME280;8646;49.716;9.266;2022-11-15T01:07:20;100029.97;;;7.58;100.00
17060;BME280;8646;49.716;9.266;2022-11-15T01:10:25;100026.13;;;7.39;100.00
17060;BME280;8646;49.716;9.266;2022-11-15T01:13:30;100035.97;;;7.40;100.00
17060;BME280;8646;49.716;9.266;2022-11-15T01:16:34;100031.69;;;7.34;100.00
17060;BME280;8646;49.716;9.266;2022-11-15T01:19:37;100029.41;;;7.48;100.00
17060;BME280;8646;49.716;9.266;2022-11-15T01:22:40;100022.19;;;7.49;100.00
17060;BME280;8646;49.716;9.266;2022-11-15T01:25:44;100022.56;;;7.38;100.00
17060;BME280;8646;49.716;9.266;2022-11-15T01:28:47;100035.09;;;7.39;100.00
17060;BME280;8646;49.716;9.266;2022-11-15T01:31:50;100032.31;;;7.42;100.00
17060;BME280;8646;49.716;9.266;2022-11-15T01:34:52;100026.94;;;7.42;100.00
17060;BME280;8646;49.716;9.266;2022-11-15T01:37:55;100017.09;;;7.41;100.00
17060;BME280;8646;49.716;9.266;2022-11-15T01:41:00;100013.28;;;7.47;100.00
17060;BME280;8646;49.716;9.266;2022-11-15T01:44:36;100008.63;;;7.27;100.00
17060;BME280;8646;49.716;9.266;2022-11-15T01:47:42;99990.13;;;7.16;100.00
17060;BME280;8646;49.716;9.266;2022-11-15T01:50:48;100004.19;;;7.24;100.00
17060;BME280;8646;49.716;9.266;2022-11-15T01:53:55;99988.97;;;7.23;100.00
17060;BME280;8646;49.716;9.266;2022-11-15T01:57:05;99984.44;;;7.25;100.00
17060;BME280;8646;49.716;9.266;2022-11-15T02:00:10;99982.44;;;7.31;100.00
17060;BME280;8646;49.716;9.266;2022-11-15T02:03:13;99982.44;;;7.31;100.00
17060;BME280;8646;49.716;9.266;2022-11-15T02:06:16;99984.34;;;7.28;100.00
17060;BME280;8646;49.716;9.266;2022-11-15T02:09:19;99987.97;;;7.27;100.00
17060;BME280;8646;49.716;9.266;2022-11-15T02:12:24;99980.78;;;7.28;100.00
17060;BME280;8646;49.716;9.266;2022-11-15T02:15:37;99985.41;;;7.23;100.00
17060;BME280;8646;49.716;9.266;2022-11-15T02:18:46;99990.03;;;7.19;100.00
17060;BME280;8646;49.716;9.266;2022-11-15T02:21:59;99981.34;;;7.11;100.00
17060;BME280;8646;49.716;9.266;2022-11-15T02:25:20;99961.84;;;7.05;100.00
17060;BME280;8646;49.716;9.266;2022-11-15T02:28:42;99975.03;;;7.12;100.00
17060;BME280;8646;49.716;9.266;2022-11-15T02:31:54;99974.16;;;7.12;100.00
17060;BME280;8646;49.716;9.266;2022-11-15T02:35:04;99967.06;;;7.09;100.00
17060;BME280;8646;49.716;9.266;2022-11-15T02:38:17;99959.28;;;7.00;100.00
17060;BME280;8646;49.716;9.266;2022-11-15T02:41:27;99965.28;;;7.08;100.00
17060;BME280;8646;49.716;9.266;2022-11-15T02:44:36;99966.97;;;7.12;100.00
17060;BME280;8646;49.716;9.266;2022-11-15T02:47:44;99953.38;;;7.15;100.00
17060;BME280;8646;49.716;9.266;2022-11-15T02:50:48;99964.09;;;7.17;100.00
17060;BME280;8646;49.716;9.266;2022-11-15T02:53:51;99960.44;;;7.19;100.00
17060;BME280;8646;49.716;9.266;2022-11-15T02:56:58;99955.75;;;7.24;100.00
17060;BME280;8646;49.716;9.266;2022-11-15T03:00:05;99942.75;;;7.37;100.00
17060;BME280;8646;49.716;9.266;2022-11-15T03:03:41;99949.63;;;7.46;100.00
17060;BME280;8646;49.716;9.266;2022-11-15T03:06:53;99929.66;;;7.76;100.00
17060;BME280;8646;49.716;9.266;2022-11-15T03:10:05;99933.09;;;7.80;100.00
17060;BME280;8646;49.716;9.266;2022-11-15T03:13:18;99935.53;;;7.62;100.00
17060;BME280;8646;49.716;9.266;2022-11-15T03:16:27;99922.16;;;7.61;100.00
17060;BME280;8646;49.716;9.266;2022-11-15T03:19:40;99921.81;;;7.70;100.00
17060;BME280;8646;49.716;9.266;2022-11-15T03:22:47;99908.59;;;7.62;100.00
17060;BME280;8646;49.716;9.266;2022-11-15T03:25:51;99925.78;;;7.60;100.00
17060;BME280;8646;49.716;9.266;2022-11-15T03:29:00;99931.59;;;7.48;100.00
17060;BME280;8646;49.716;9.266;2022-11-15T03:32:09;99930.09;;;7.39;100.00
17060;BME280;8646;49.716;9.266;2022-11-15T03:35:17;99918.47;;;7.39;100.00
17060;BME280;8646;49.716;9.266;2022-11-15T03:38:24;99906.38;;;7.50;100.00
17060;BME280;8646;49.716;9.266;2022-11-15T03:41:30;99898.88;;;7.35;100.00
17060;BME280;8646;49.716;9.266;2022-11-15T03:44:42;99901.56;;;7.35;100.00
17060;BME280;8646;49.716;9.266;2022-11-15T03:47:51;99872.97;;;7.31;100.00
17060;BME280;8646;49.716;9.266;2022-11-15T03:50:57;99901.28;;;7.43;100.00
17060;BME280;8646;49.716;9.266;2022-11-15T03:54:02;99908.66;;;7.38;100.00
17060;BME280;8646;49.716;9.266;2022-11-15T03:57:06;99911.94;;;7.46;100.00
17060;BME280;8646;49.716;9.266;2022-11-15T04:00:10;99909.44;;;7.40;100.00
17060;BME280;8646;49.716;9.266;2022-11-15T04:03:13;99916.88;;;7.33;100.00
17060;BME280;8646;49.716;9.266;2022-11-15T04:06:18;99916.28;;;7.25;100.00
17060;BME280;8646;49.716;9.266;2022-11-15T04:09:21;99913.75;;;7.20;100.00
17060;BME280;8646;49.716;9.266;2022-11-15T04:12:23;99920.06;;;7.19;100.00
17060;BME280;8646;49.716;9.266;2022-11-15T04:15:33;99901.59;;;7.09;100.00
17060;BME280;8646;49.716;9.266;2022-11-15T04:18:36;99922.31;;;7.32;100.00
17060;BME280;8646;49.716;9.266;2022-11-15T04:21:40;99926.00;;;7.54;100.00
17060;BME280;8646;49.716;9.266;2022-11-15T04:25:00;99912.25;;;7.61;100.00
17060;BME280;8646;49.716;9.266;2022-11-15T04:28:04;99907.50;;;7.68;100.00
17060;BME280;8646;49.716;9.266;2022-11-15T04:31:06;99905.91;;;7.62;100.00
17060;BME280;8646;49.716;9.266;2022-11-15T04:34:09;99902.38;;;7.62;100.00
17060;BME280;8646;49.716;9.266;2022-11-15T04:37:14;99902.22;;;7.65;100.00
17060;BME280;8646;49.716;9.266;2022-11-15T04:40:17;99886.41;;;7.56;100.00
17060;BME280;8646;49.716;9.266;2022-11-15T04:43:20;99901.31;;;7.66;100.00
17060;BME280;8646;49.716;9.266;2022-11-15T04:46:24;99899.50;;;7.66;100.00
17060;BME280;8646;49.716;9.266;2022-11-15T04:49:27;99892.34;;;7.65;100.00
17060;BME280;8646;49.716;9.266;2022-11-15T04:52:31;99896.97;;;7.62;100.00
17060;BME280;8646;49.716;9.266;2022-11-15T04:55:34;99890.75;;;7.60;100.00
17060;BME280;8646;49.716;9.266;2022-11-15T04:58:37;99883.66;;;7.57;100.00
17060;BME280;8646;49.716;9.266;2022-11-15T05:01:40;99885.47;;;7.57;100.00
17060;BME280;8646;49.716;9.266;2022-11-15T05:04:45;99880.94;;;7.59;100.00
17060;BME280;8646;49.716;9.266;2022-11-15T05:07:49;99887.19;;;7.59;100.00
17060;BME280;8646;49.716;9.266;2022-11-15T05:10:52;99888.97;;;7.60;100.00
17060;BME280;8646;49.716;9.266;2022-11-15T05:13:55;99880.09;;;7.57;100.00
17060;BME280;8646;49.716;9.266;2022-11-15T05:16:58;99872.16;;;7.54;100.00
17060;BME280;8646;49.716;9.266;2022-11-15T05:20:02;99875.00;;;7.49;100.00
17060;BME280;8646;49.716;9.266;2022-11-15T05:23:06;99865.34;;;7.44;100.00
17060;BME280;8646;49.716;9.266;2022-11-15T05:26:09;99861.28;;;7.32;100.00
17060;BME280;8646;49.716;9.266;2022-11-15T05:29:13;99881.59;;;7.41;100.00
17060;BME280;8646;49.716;9.266;2022-11-15T05:32:16;99871.81;;;7.38;100.00
17060;BME280;8646;49.716;9.266;2022-11-15T05:35:30;99870.00;;;7.39;100.00
17060;BME280;8646;49.716;9.266;2022-11-15T05:38:37;99872.59;;;7.42;100.00
17060;BME280;8646;49.716;9.266;2022-11-15T05:41:43;99870.59;;;7.47;100.00
17060;BME280;8646;49.716;9.266;2022-11-15T05:44:48;99854.69;;;7.41;100.00
17060;BME280;8646;49.716;9.266;2022-11-15T05:47:52;99867.09;;;7.45;100.00
17060;BME280;8646;49.716;9.266;2022-11-15T05:50:57;99848.25;;;7.45;100.00
17060;BME280;8646;49.716;9.266;2022-11-15T05:54:02;99821.19;;;7.24;100.00
17060;BME280;8646;49.716;9.266;2022-11-15T05:57:05;99849.06;;;7.47;100.00
17060;BME280;8646;49.716;9.266;2022-11-15T06:00:09;99835.69;;;7.45;100.00
17060;BME280;8646;49.716;9.266;2022-11-15T06:03:12;99846.22;;;7.51;100.00
17060;BME280;8646;49.716;9.266;2022-11-15T06:06:15;99846.81;;;7.59;100.00
17060;BME280;8646;49.716;9.266;2022-11-15T06:09:20;99845.63;;;7.66;100.00
17060;BME280;8646;49.716;9.266;2022-11-15T06:12:23;99838.72;;;7.59;100.00
17060;BME280;8646;49.716;9.266;2022-11-15T06:15:25;99843.28;;;7.57;100.00
17060;BME280;8646;49.716;9.266;2022-11-15T06:18:31;99864.44;;;7.68;100.00
17060;BME280;8646;49.716;9.266;2022-11-15T06:21:34;99851.06;;;7.65;100.00
17060;BME280;8646;49.716;9.266;2022-11-15T06:24:39;99850.97;;;7.68;100.00
17060;BME280;8646;49.716;9.266;2022-11-15T06:27:41;99858.16;;;7.68;100.00
17060;BME280;8646;49.716;9.266;2022-11-15T06:30:44;99866.81;;;7.52;100.00
17060;BME280;8646;49.716;9.266;2022-11-15T06:33:54;99856.44;;;7.42;100.00
17060;BME280;8646;49.716;9.266;2022-11-15T06:36:57;99863.34;;;7.49;100.00
17060;BME280;8646;49.716;9.266;2022-11-15T06:40:01;99857.31;;;7.42;100.00
17060;BME280;8646;49.716;9.266;2022-11-15T06:43:04;99866.22;;;7.44;100.00
17060;BME280;8646;49.716;9.266;2022-11-15T06:46:08;99874.03;;;7.52;100.00
17060;BME280;8646;49.716;9.266;2022-11-15T06:49:11;99885.63;;;7.54;100.00
17060;BME280;8646;49.716;9.266;2022-11-15T06:52:13;99889.94;;;7.58;100.00
17060;BME280;8646;49.716;9.266;2022-11-15T06:55:17;99890.63;;;7.63;100.00
17060;BME280;8646;49.716;9.266;2022-11-15T06:58:21;99886.97;;;7.65;100.00
17060;BME280;8646;49.716;9.266;2022-11-15T07:01:24;99886.97;;;7.65;100.00
17060;BME280;8646;49.716;9.266;2022-11-15T07:04:27;99885.38;;;7.60;100.00
17060;BME280;8646;49.716;9.266;2022-11-15T07:07:29;99881.97;;;7.55;100.00
17060;BME280;8646;49.716;9.266;2022-11-15T07:10:34;99860.94;;;7.41;100.00
17060;BME280;8646;49.716;9.266;2022-11-15T07:13:37;99873.28;;;7.47;100.00
17060;BME280;8646;49.716;9.266;2022-11-15T07:16:40;99879.75;;;7.43;100.00
17060;BME280;8646;49.716;9.266;2022-11-15T07:19:43;99890.75;;;7.37;100.00
17060;BME280;8646;49.716;9.266;2022-11-15T07:22:46;99891.72;;;7.34;100.00
17060;BME280;8646;49.716;9.266;2022-11-15T07:25:50;99890.75;;;7.37;100.00
17060;BME280;8646;49.716;9.266;2022-11-15T07:28:53;99885.50;;;7.32;100.00
17060;BME280;8646;49.716;9.266;2022-11-15T07:31:56;99883.25;;;7.45;100.00
17060;BME280;8646;49.716;9.266;2022-11-15T07:34:59;99888.66;;;7.45;100.00
17060;BME280;8646;49.716;9.266;2022-11-15T07:38:02;99878.97;;;7.39;100.00
17060;BME280;8646;49.716;9.266;2022-11-15T07:41:07;99865.44;;;7.41;100.00
17060;BME280;8646;49.716;9.266;2022-11-15T07:44:10;99882.69;;;7.60;100.00
17060;BME280;8646;49.716;9.266;2022-11-15T07:47:12;99888.91;;;7.85;100.00
17060;BME280;8646;49.716;9.266;2022-11-15T07:50:16;99884.31;;;7.87;100.00
17060;BME280;8646;49.716;9.266;2022-11-15T07:53:19;99888.66;;;7.91;100.00
17060;BME280;8646;49.716;9.266;2022-11-15T07:56:23;99880.88;;;7.84;100.00
17060;BME280;8646;49.716;9.266;2022-11-15T07:59:26;99885.34;;;7.85;100.00
17060;BME280;8646;49.716;9.266;2022-11-15T08:02:29;99893.16;;;7.91;100.00
17060;BME280;8646;49.716;9.266;2022-11-15T08:05:33;99884.44;;;8.08;100.00
17060;BME280;8646;49.716;9.266;2022-11-15T08:08:36;99893.09;;;8.16;100.00
17060;BME280;8646;49.716;9.266;2022-11-15T08:11:40;99851.84;;;8.14;100.00
17060;BME280;8646;49.716;9.266;2022-11-15T08:14:43;99874.19;;;8.39;100.00
17060;BME280;8646;49.716;9.266;2022-11-15T08:17:46;99873.66;;;8.29;100.00
17060;BME280;8646;49.716;9.266;2022-11-15T08:20:49;99867.59;;;8.24;100.00
17060;BME280;8646;49.716;9.266;2022-11-15T08:23:52;99873.03;;;8.23;100.00
17060;BME280;8646;49.716;9.266;2022-11-15T08:26:56;99872.84;;;8.27;100.00
17060;BME280;8646;49.716;9.266;2022-11-15T08:29:59;99855.31;;;8.39;100.00
17060;BME280;8646;49.716;9.266;2022-11-15T08:33:03;99859.03;;;8.58;100.00
17060;BME280;8646;49.716;9.266;2022-11-15T08:36:10;99852.00;;;8.54;100.00
17060;BME280;8646;49.716;9.266;2022-11-15T08:39:14;99852.88;;;8.55;100.00
17060;BME280;8646;49.716;9.266;2022-11-15T08:42:19;99850.84;;;8.60;100.00
17060;BME280;8646;49.716;9.266;2022-11-15T08:45:22;99841.75;;;8.62;100.00
17060;BME280;8646;49.716;9.266;2022-11-15T08:48:25;99815.72;;;8.61;100.00
17060;BME280;8646;49.716;9.266;2022-11-15T08:51:28;99837.19;;;8.85;100.00
17060;BME280;8646;49.716;9.266;2022-11-15T08:54:31;99837.13;;;8.86;100.00
17060;BME280;8646;49.716;9.266;2022-11-15T08:57:35;99836.28;;;9.06;100.00
17060;BME280;8646;49.716;9.266;2022-11-15T09:00:38;99832.00;;;9.00;100.00
17060;BME280;8646;49.716;9.266;2022-11-15T09:03:41;99825.41;;;9.07;100.00
17060;BME280;8646;49.716;9.266;2022-11-15T09:06:44;99828.19;;;9.06;100.00
17060;BME280;8646;49.716;9.266;2022-11-15T09:09:47;99819.38;;;9.21;100.00
17060;BME280;8646;49.716;9.266;2022-11-15T09:12:51;99817.09;;;9.32;100.00
17060;BME280;8646;49.716;9.266;2022-11-15T09:15:57;99805.00;;;9.60;99.33
17060;BME280;8646;49.716;9.266;2022-11-15T09:19:00;99805.81;;;9.80;98.71
17060;BME280;8646;49.716;9.266;2022-11-15T09:22:08;99803.53;;;9.90;99.10
17060;BME280;8646;49.716;9.266;2022-11-15T09:25:11;99790.34;;;10.21;97.95
17060;BME280;8646;49.716;9.266;2022-11-15T09:28:15;99785.59;;;10.44;96.37
17060;BME280;8646;49.716;9.266;2022-11-15T09:31:18;99752.00;;;10.48;95.13
17060;BME280;8646;49.716;9.266;2022-11-15T09:34:22;99772.09;;;10.78;95.14
17060;BME280;8646;49.716;9.266;2022-11-15T09:37:26;99747.88;;;10.92;90.90
17060;BME280;8646;49.716;9.266;2022-11-15T09:40:30;99776.50;;;11.14;90.31
17060;BME280;8646;49.716;9.266;2022-11-15T09:43:40;99776.91;;;11.06;91.37
17060;BME280;8646;49.716;9.266;2022-11-15T09:46:55;99766.38;;;11.17;89.61
17060;BME280;8646;49.716;9.266;2022-11-15T09:50:09;99771.09;;;11.14;90.92
17060;BME280;8646;49.716;9.266;2022-11-15T09:53:14;99746.84;;;11.28;88.73
17060;BME280;8646;49.716;9.266;2022-11-15T09:56:41;99738.78;;;11.11;89.61
17060;BME280;8646;49.716;9.266;2022-11-15T10:00:04;99746.66;;;11.31;88.96
17060;BME280;8646;49.716;9.266;2022-11-15T10:03:31;99737.94;;;11.26;88.98
17060;BME280;8646;49.716;9.266;2022-11-15T10:06:40;99759.25;;;11.32;89.19
17060;BME280;8646;49.716;9.266;2022-11-15T10:09:48;99739.69;;;11.27;88.86
17060;BME280;8646;49.716;9.266;2022-11-15T10:12:53;99741.44;;;11.43;87.93
17060;BME280;8646;49.716;9.266;2022-11-15T10:16:03;99736.59;;;11.50;86.65
17060;BME280;8646;49.716;9.266;2022-11-15T10:19:17;99731.94;;;11.52;86.48
17060;BME280;8646;49.716;9.266;2022-11-15T10:22:28;99735.44;;;11.54;87.09
17060;BME280;8646;49.716;9.266;2022-11-15T10:25:33;99734.56;;;11.54;87.13
17060;BME280;8646;49.716;9.266;2022-11-15T10:28:36;99724.53;;;11.56;86.31
17060;BME280;8646;49.716;9.266;2022-11-15T10:31:41;99732.91;;;11.51;87.18
17060;BME280;8646;49.716;9.266;2022-11-15T10:34:45;99722.78;;;11.70;85.43
17060;BME280;8646;49.716;9.266;2022-11-15T10:37:49;99723.91;;;11.66;86.32
17060;BME280;8646;49.716;9.266;2022-11-15T10:41:06;99717.44;;;11.69;85.86
17060;BME280;8646;49.716;9.266;2022-11-15T10:44:17;99715.78;;;11.66;85.96
17060;BME280;8646;49.716;9.266;2022-11-15T10:47:28;99712.13;;;11.67;86.51
17060;BME280;8646;49.716;9.266;2022-11-15T10:50:41;99707.19;;;11.75;86.08
17060;BME280;8646;49.716;9.266;2022-11-15T10:53:44;99700.75;;;11.76;86.66
17060;BME280;8646;49.716;9.266;2022-11-15T10:56:50;99691.94;;;11.89;86.01
17060;BME280;8646;49.716;9.266;2022-11-15T10:59:55;99687.13;;;11.94;85.89
17060;BME280;8646;49.716;9.266;2022-11-15T11:03:02;99682.63;;;12.08;84.26
17060;BME280;8646;49.716;9.266;2022-11-15T11:06:08;99677.66;;;12.01;85.13
17060;BME280;8646;49.716;9.266;2022-11-15T11:09:23;99672.78;;;12.07;84.63
17060;BME280;8646;49.716;9.266;2022-11-15T11:12:28;99667.34;;;12.07;84.42
17060;BME280;8646;49.716;9.266;2022-11-15T11:15:33;99660.69;;;12.13;84.66
17060;BME280;8646;49.716;9.266;2022-11-15T11:18:45;99662.13;;;12.18;84.52
17060;BME280;8646;49.716;9.266;2022-11-15T11:21:56;99646.06;;;12.15;84.93
17060;BME280;8646;49.716;9.266;2022-11-15T11:25:11;99667.47;;;12.20;85.16
17060;BME280;8646;49.716;9.266;2022-11-15T11:28:29;99653.44;;;12.28;84.10
17060;BME280;8646;49.716;9.266;2022-11-15T11:31:40;99643.38;;;12.30;83.82
17060;BME280;8646;49.716;9.266;2022-11-15T11:35:00;99657.06;;;12.42;83.81
17060;BME280;8646;49.716;9.266;2022-11-15T11:38:19;99642.94;;;12.51;82.40
17060;BME280;8646;49.716;9.266;2022-11-15T11:41:43;99631.91;;;12.40;82.99
17060;BME280;8646;49.716;9.266;2022-11-15T11:44:54;99634.97;;;12.34;83.94
17060;BME280;8646;49.716;9.266;2022-11-15T11:48:10;99636.06;;;12.46;83.11
17060;BME280;8646;49.716;9.266;2022-11-15T11:51:18;99638.47;;;12.50;82.86
17060;BME280;8646;49.716;9.266;2022-11-15T11:54:29;99636.56;;;12.52;82.61
17060;BME280;8646;49.716;9.266;2022-11-15T11:57:41;99630.16;;;12.53;82.69
17060;BME280;8646;49.716;9.266;2022-11-15T12:00:49;99620.09;;;12.55;82.46
17060;BME280;8646;49.716;9.266;2022-11-15T12:03:57;99606.88;;;12.49;83.10
17060;BME280;8646;49.716;9.266;2022-11-15T12:07:08;99597.03;;;12.63;83.09
17060;BME280;8646;49.716;9.266;2022-11-15T12:10:21;99598.38;;;12.84;82.04
17060;BME280;8646;49.716;9.266;2022-11-15T12:13:26;99588.31;;;12.86;81.87
17060;BME280;8646;49.716;9.266;2022-11-15T12:16:35;99582.47;;;12.92;81.50
17060;BME280;8646;49.716;9.266;2022-11-15T12:19:38;99470.91;;;12.26;82.28
17060;BME280;8646;49.716;9.266;2022-11-15T12:22:46;99556.56;;;13.00;81.29
17060;BME280;8646;49.716;9.266;2022-11-15T12:25:53;99551.94;;;13.17;79.46
17060;BME280;8646;49.716;9.266;2022-11-15T12:29:00;99551.44;;;13.10;80.28
17060;BME280;8646;49.716;9.266;2022-11-15T12:32:18;99542.72;;;13.05;80.07
17060;BME280;8646;49.716;9.266;2022-11-15T12:35:34;99542.34;;;12.97;80.93
17060;BME280;8646;49.716;9.266;2022-11-15T12:38:56;99544.00;;;12.85;82.53
17060;BME280;8646;49.716;9.266;2022-11-15T12:45:37;99527.88;;;12.96;81.67
17060;BME280;8646;49.716;9.266;2022-11-15T12:48:55;99526.31;;;12.92;81.76
17060;BME280;8646;49.716;9.266;2022-11-15T12:52:08;99530.09;;;12.90;82.50
17060;BME280;8646;49.716;9.266;2022-11-15T12:55:32;99515.47;;;12.92;81.87
17060;BME280;8646;49.716;9.266;2022-11-15T12:58:41;99518.00;;;12.95;81.90
17060;BME280;8646;49.716;9.266;2022-11-15T13:01:58;99507.63;;;12.88;82.55
17060;BME280;8646;49.716;9.266;2022-11-15T13:08:50;99506.44;;;13.20;80.29
17060;BME280;8646;49.716;9.266;2022-11-15T13:11:55;99511.75;;;13.08;81.34
17060;BME280;8646;49.716;9.266;2022-11-15T13:14:59;99507.09;;;13.10;81.13
17060;BME280;8646;49.716;9.266;2022-11-15T13:18:35;99511.56;;;13.11;81.63
17060;BME280;8646;49.716;9.266;2022-11-15T13:21:48;99497.59;;;13.17;80.62
17060;BME280;8646;49.716;9.266;2022-11-15T13:25:17;99499.81;;;13.10;81.47
17060;BME280;8646;49.716;9.266;2022-11-15T13:28:29;99493.41;;;13.11;81.49
17060;BME280;8646;49.716;9.266;2022-11-15T13:31:36;99464.03;;;13.04;81.04
17060;BME280;8646;49.716;9.266;2022-11-15T13:34:43;99486.03;;;13.27;80.48
17060;BME280;8646;49.716;9.266;2022-11-15T13:37:54;99480.41;;;13.16;80.65
17060;BME280;8646;49.716;9.266;2022-11-15T13:40:58;99485.75;;;13.18;80.99
17060;BME280;8646;49.716;9.266;2022-11-15T13:44:05;99484.69;;;13.06;82.60
17060;BME280;8646;49.716;9.266;2022-11-15T13:47:21;99483.41;;;13.26;81.31
17060;BME280;8646;49.716;9.266;2022-11-15T13:50:26;99482.63;;;13.24;81.86
17060;BME280;8646;49.716;9.266;2022-11-15T13:53:31;99461.66;;;13.26;81.33
17060;BME280;8646;49.716;9.266;2022-11-15T13:56:36;99475.41;;;13.37;81.01
17060;BME280;8646;49.716;9.266;2022-11-15T13:59:47;99473.81;;;13.20;82.31
17060;BME280;8646;49.716;9.266;2022-11-15T14:02:51;99463.94;;;13.19;82.91
17060;BME280;8646;49.716;9.266;2022-11-15T14:06:09;99440.34;;;13.06;82.90
17060;BME280;8646;49.716;9.266;2022-11-15T14:09:32;99452.19;;;13.19;82.50
17060;BME280;8646;49.716;9.266;2022-11-15T14:12:36;99450.81;;;13.12;82.78
17060;BME280;8646;49.716;9.266;2022-11-15T14:15:40;99446.06;;;13.15;82.55
17060;BME280;8646;49.716;9.266;2022-11-15T14:18:45;99429.78;;;13.15;82.45
17060;BME280;8646;49.716;9.266;2022-11-15T14:22:10;99430.34;;;13.06;82.87
17060;BME280;8646;49.716;9.266;2022-11-15T14:25:16;99431.97;;;12.96;84.06
17060;BME280;8646;49.716;9.266;2022-11-15T14:28:31;99432.97;;;13.08;83.04
17060;BME280;8646;49.716;9.266;2022-11-15T14:31:39;99420.97;;;12.97;83.70
17060;BME280;8646;49.716;9.266;2022-11-15T14:34:45;99416.41;;;12.98;83.82
17060;BME280;8646;49.716;9.266;2022-11-15T14:37:48;99416.56;;;12.96;83.91
17060;BME280;8646;49.716;9.266;2022-11-15T14:40:51;99410.25;;;12.96;83.95
17060;BME280;8646;49.716;9.266;2022-11-15T14:43:55;99407.72;;;12.93;84.39
17060;BME280;8646;49.716;9.266;2022-11-15T14:46:59;99404.44;;;12.88;84.40
17060;BME280;8646;49.716;9.266;2022-11-15T14:50:03;99402.91;;;12.84;85.42
17060;BME280;8646;49.716;9.266;2022-11-15T14:53:06;99403.97;;;12.81;86.03
17060;BME280;8646;49.716;9.266;2022-11-15T14:56:09;99396.09;;;12.91;86.02
17060;BME280;8646;49.716;9.266;2022-11-15T14:59:12;99387.28;;;12.87;85.80
17060;BME280;8646;49.716;9.266;2022-11-15T15:02:18;99391.00;;;12.99;85.21
17060;BME280;8646;49.716;9.266;2022-11-15T15:05:23;99386.97;;;12.92;85.64
17060;BME280;8646;49.716;9.266;2022-11-15T15:08:26;99370.69;;;12.92;85.87
17060;BME280;8646;49.716;9.266;2022-11-15T15:11:31;99379.69;;;12.92;85.73
17060;BME280;8646;49.716;9.266;2022-11-15T15:14:33;99369.50;;;12.96;85.36
17060;BME280;8646;49.716;9.266;2022-11-15T15:17:38;99368.63;;;12.95;84.88
17060;BME280;8646;49.716;9.266;2022-11-15T15:20:41;99373.91;;;12.84;85.68
17060;BME280;8646;49.716;9.266;2022-11-15T15:23:46;99367.69;;;12.82;85.57
17060;BME280;8646;49.716;9.266;2022-11-15T15:26:49;99364.75;;;12.73;86.10
17060;BME280;8646;49.716;9.266;2022-11-15T15:29:51;99357.59;;;12.72;86.35
17060;BME280;8646;49.716;9.266;2022-11-15T15:32:56;99343.66;;;12.49;86.66
17060;BME280;8646;49.716;9.266;2022-11-15T15:35:59;99333.69;;;12.50;86.70
17060;BME280;8646;49.716;9.266;2022-11-15T15:39:02;99335.66;;;12.48;87.12
17060;BME280;8646;49.716;9.266;2022-11-15T15:42:05;99349.09;;;12.49;87.62
17060;BME280;8646;49.716;9.266;2022-11-15T15:45:09;99330.72;;;12.40;87.86
17060;BME280;8646;49.716;9.266;2022-11-15T15:48:15;99331.69;;;12.39;87.96
17060;BME280;8646;49.716;9.266;2022-11-15T15:51:18;99341.47;;;12.42;87.82
17060;BME280;8646;49.716;9.266;2022-11-15T15:54:21;99339.47;;;12.31;88.27
17060;BME280;8646;49.716;9.266;2022-11-15T15:57:24;99340.34;;;12.17;89.10
17060;BME280;8646;49.716;9.266;2022-11-15T16:00:27;99341.63;;;12.12;89.80
17060;BME280;8646;49.716;9.266;2022-11-15T16:03:32;99340.47;;;12.16;89.70
17060;BME280;8646;49.716;9.266;2022-11-15T16:06:37;99301.75;;;12.00;89.72
17060;BME280;8646;49.716;9.266;2022-11-15T16:09:40;99331.34;;;12.17;89.61
17060;BME280;8646;49.716;9.266;2022-11-15T16:13:01;99329.25;;;12.08;89.71
17060;BME280;8646;49.716;9.266;2022-11-15T16:16:05;99325.44;;;12.10;89.70
17060;BME280;8646;49.716;9.266;2022-11-15T16:19:12;99333.66;;;12.09;89.90
17060;BME280;8646;49.716;9.266;2022-11-15T16:22:15;99328.06;;;12.12;90.14
17060;BME280;8646;49.716;9.266;2022-11-15T16:25:18;99324.38;;;12.13;89.78
17060;BME280;8646;49.716;9.266;2022-11-15T16:28:22;99326.13;;;12.14;89.71
17060;BME280;8646;49.716;9.266;2022-11-15T16:31:25;99318.50;;;12.06;90.40
17060;BME280;8646;49.716;9.266;2022-11-15T16:34:30;99315.47;;;12.11;90.49
17060;BME280;8646;49.716;9.266;2022-11-15T16:37:40;99303.75;;;12.10;90.30
17060;BME280;8646;49.716;9.266;2022-11-15T16:40:45;99298.63;;;12.06;90.74
17060;BME280;8646;49.716;9.266;2022-11-15T16:43:48;99301.84;;;11.98;91.42
17060;BME280;8646;49.716;9.266;2022-11-15T16:46:51;99293.03;;;11.95;91.16